sensor_id;sensor_type;location;lat;lon;timestamp;P1;durP1;ratioP1;P2;durP2;ratioP2
50671;SDS011;46021;55.882;37.654;2023-04-24T00:01:35;48.17;;;13.07;;
50671;SDS011;46021;55.882;37.654;2023-04-24T00:04:02;51.43;;;14.73;;
50671;SDS011;46021;55.882;37.654;2023-04-24T00:06:29;45.07;;;14.00;;
50671;SDS011;46021;55.882;37.654;2023-04-24T00:08:58;44.05;;;14.60;;
50671;SDS011;46021;55.882;37.654;2023-04-24T00:11:26;46.60;;;14.10;;
50671;SDS011;46021;55.882;37.654;2023-04-24T00:13:53;54.20;;;14.68;;
50671;SDS011;46021;55.882;37.654;2023-04-24T00:16:22;40.50;;;13.97;;
50671;SDS011;46021;55.882;37.654;2023-04-24T00:18:49;41.50;;;14.85;;
50671;SDS011;46021;55.882;37.654;2023-04-24T00:21:21;45.05;;;14.80;;
50671;SDS011;46021;55.882;37.654;2023-04-24T00:23:50;50.80;;;15.13;;
50671;SDS011;46021;55.882;37.654;2023-04-24T00:26:18;41.80;;;13.93;;
50671;SDS011;46021;55.882;37.654;2023-04-24T00:28:45;44.93;;;14.30;;
50671;SDS011;46021;55.882;37.654;2023-04-24T00:31:12;44.08;;;13.95;;
50671;SDS011;46021;55.882;37.654;2023-04-24T00:33:41;44.50;;;15.50;;
50671;SDS011;46021;55.882;37.654;2023-04-24T00:36:08;41.03;;;14.48;;
50671;SDS011;46021;55.882;37.654;2023-04-24T00:38:35;47.53;;;15.50;;
50671;SDS011;46021;55.882;37.654;2023-04-24T00:41:03;45.72;;;13.90;;
50671;SDS011;46021;55.882;37.654;2023-04-24T00:45:57;52.20;;;14.98;;
50671;SDS011;46021;55.882;37.654;2023-04-24T00:48:27;59.30;;;15.10;;
50671;SDS011;46021;55.882;37.654;2023-04-24T00:50:56;38.58;;;14.30;;
50671;SDS011;46021;55.882;37.654;2023-04-24T00:53:24;46.92;;;14.20;;
50671;SDS011;46021;55.882;37.654;2023-04-24T00:55:51;40.83;;;14.03;;
50671;SDS011;46021;55.882;37.654;2023-04-24T00:58:18;49.08;;;15.52;;
50671;SDS011;46021;55.882;37.654;2023-04-24T01:00:46;50.47;;;15.80;;
50671;SDS011;46021;55.882;37.654;2023-04-24T01:03:15;46.55;;;14.65;;
50671;SDS011;46021;55.882;37.654;2023-04-24T01:05:44;46.70;;;14.15;;
50671;SDS011;46021;55.882;37.654;2023-04-24T01:08:12;46.93;;;14.57;;
50671;SDS011;46021;55.882;37.654;2023-04-24T01:10:41;37.90;;;14.48;;
50671;SDS011;46021;55.882;37.654;2023-04-24T01:13:08;44.50;;;15.35;;
50671;SDS011;46021;55.882;37.654;2023-04-24T01:15:35;58.80;;;14.67;;
50671;SDS011;46021;55.882;37.654;2023-04-24T01:18:03;40.13;;;14.85;;
50671;SDS011;46021;55.882;37.654;2023-04-24T01:20:30;46.63;;;14.50;;
50671;SDS011;46021;55.882;37.654;2023-04-24T01:23:00;40.88;;;14.10;;
50671;SDS011;46021;55.882;37.654;2023-04-24T01:25:28;38.13;;;14.65;;
50671;SDS011;46021;55.882;37.654;2023-04-24T01:27:56;54.70;;;15.02;;
50671;SDS011;46021;55.882;37.654;2023-04-24T01:30:24;46.03;;;14.15;;
50671;SDS011;46021;55.882;37.654;2023-04-24T01:32:51;36.00;;;14.30;;
50671;SDS011;46021;55.882;37.654;2023-04-24T01:35:19;34.47;;;11.80;;
50671;SDS011;46021;55.882;37.654;2023-04-24T01:37:47;39.58;;;13.35;;
50671;SDS011;46021;55.882;37.654;2023-04-24T01:40:15;38.57;;;15.30;;
50671;SDS011;46021;55.882;37.654;2023-04-24T01:42:42;41.53;;;12.60;;
50671;SDS011;46021;55.882;37.654;2023-04-24T01:45:10;39.20;;;12.85;;
50671;SDS011;46021;55.882;37.654;2023-04-24T01:47:39;35.45;;;12.32;;
50671;SDS011;46021;55.882;37.654;2023-04-24T01:50:06;41.70;;;13.80;;
50671;SDS011;46021;55.882;37.654;2023-04-24T01:52:35;32.15;;;12.10;;
50671;SDS011;46021;55.882;37.654;2023-04-24T01:55:02;38.43;;;13.87;;
50671;SDS011;46021;55.882;37.654;2023-04-24T01:57:31;36.28;;;13.77;;
50671;SDS011;46021;55.882;37.654;2023-04-24T01:59:59;33.22;;;11.25;;
50671;SDS011;46021;55.882;37.654;2023-04-24T02:02:31;33.67;;;12.63;;
50671;SDS011;46021;55.882;37.654;2023-04-24T02:04:58;38.20;;;12.80;;
50671;SDS011;46021;55.882;37.654;2023-04-24T02:07:29;38.40;;;13.05;;
50671;SDS011;46021;55.882;37.654;2023-04-24T02:09:56;28.30;;;7.80;;
50671;SDS011;46021;55.882;37.654;2023-04-24T02:12:23;35.17;;;12.93;;
50671;SDS011;46021;55.882;37.654;2023-04-24T02:17:19;36.25;;;12.55;;
50671;SDS011;46021;55.882;37.654;2023-04-24T02:19:46;85.68;;;27.73;;
50671;SDS011;46021;55.882;37.654;2023-04-24T02:22:13;38.95;;;15.65;;
50671;SDS011;46021;55.882;37.654;2023-04-24T02:24:41;42.47;;;14.87;;
50671;SDS011;46021;55.882;37.654;2023-04-24T02:27:08;59.55;;;27.08;;
50671;SDS011;46021;55.882;37.654;2023-04-24T02:29:35;48.58;;;20.25;;
50671;SDS011;46021;55.882;37.654;2023-04-24T02:32:04;42.28;;;15.40;;
50671;SDS011;46021;55.882;37.654;2023-04-24T02:34:32;36.20;;;16.17;;
50671;SDS011;46021;55.882;37.654;2023-04-24T02:36:59;47.87;;;14.37;;
50671;SDS011;46021;55.882;37.654;2023-04-24T02:39:27;31.90;;;13.27;;
50671;SDS011;46021;55.882;37.654;2023-04-24T02:41:54;40.60;;;13.60;;
50671;SDS011;46021;55.882;37.654;2023-04-24T02:44:21;48.60;;;20.27;;
50671;SDS011;46021;55.882;37.654;2023-04-24T02:46:48;45.22;;;18.52;;
50671;SDS011;46021;55.882;37.654;2023-04-24T02:49:17;45.50;;;14.93;;
50671;SDS011;46021;55.882;37.654;2023-04-24T02:51:44;29.85;;;13.23;;
50671;SDS011;46021;55.882;37.654;2023-04-24T02:54:11;39.93;;;12.20;;
50671;SDS011;46021;55.882;37.654;2023-04-24T02:56:39;45.70;;;14.10;;
50671;SDS011;46021;55.882;37.654;2023-04-24T02:59:07;36.67;;;13.85;;
50671;SDS011;46021;55.882;37.654;2023-04-24T03:01:36;44.17;;;13.82;;
50671;SDS011;46021;55.882;37.654;2023-04-24T03:04:03;26.75;;;11.60;;
50671;SDS011;46021;55.882;37.654;2023-04-24T03:06:32;30.65;;;11.75;;
50671;SDS011;46021;55.882;37.654;2023-04-24T03:09:01;42.03;;;13.43;;
50671;SDS011;46021;55.882;37.654;2023-04-24T03:11:28;43.85;;;13.93;;
50671;SDS011;46021;55.882;37.654;2023-04-24T03:13:55;47.17;;;13.97;;
50671;SDS011;46021;55.882;37.654;2023-04-24T03:16:23;34.97;;;14.83;;
50671;SDS011;46021;55.882;37.654;2023-04-24T03:18:52;41.15;;;13.43;;
50671;SDS011;46021;55.882;37.654;2023-04-24T03:21:20;26.60;;;12.02;;
50671;SDS011;46021;55.882;37.654;2023-04-24T03:23:49;48.22;;;19.75;;
50671;SDS011;46021;55.882;37.654;2023-04-24T03:26:16;50.35;;;18.13;;
50671;SDS011;46021;55.882;37.654;2023-04-24T03:28:56;36.75;;;13.05;;
50671;SDS011;46021;55.882;37.654;2023-04-24T03:31:23;28.37;;;13.43;;
50671;SDS011;46021;55.882;37.654;2023-04-24T03:33:50;35.35;;;12.23;;
50671;SDS011;46021;55.882;37.654;2023-04-24T03:36:17;49.60;;;14.65;;
50671;SDS011;46021;55.882;37.654;2023-04-24T03:38:45;44.28;;;13.23;;
50671;SDS011;46021;55.882;37.654;2023-04-24T03:41:32;37.60;;;13.30;;
50671;SDS011;46021;55.882;37.654;2023-04-24T03:44:22;38.17;;;11.63;;
50671;SDS011;46021;55.882;37.654;2023-04-24T03:49:19;45.05;;;11.32;;
50671;SDS011;46021;55.882;37.654;2023-04-24T03:51:47;23.88;;;11.70;;
50671;SDS011;46021;55.882;37.654;2023-04-24T03:54:21;35.90;;;19.65;;
50671;SDS011;46021;55.882;37.654;2023-04-24T03:56:51;28.85;;;12.00;;
50671;SDS011;46021;55.882;37.654;2023-04-24T03:59:18;33.67;;;12.13;;
50671;SDS011;46021;55.882;37.654;2023-04-24T04:01:51;27.52;;;10.98;;
50671;SDS011;46021;55.882;37.654;2023-04-24T04:04:19;28.73;;;11.40;;
50671;SDS011;46021;55.882;37.654;2023-04-24T04:06:47;31.58;;;11.82;;
50671;SDS011;46021;55.882;37.654;2023-04-24T04:11:41;34.28;;;11.27;;
50671;SDS011;46021;55.882;37.654;2023-04-24T04:14:10;29.80;;;11.13;;
50671;SDS011;46021;55.882;37.654;2023-04-24T04:16:40;33.17;;;11.45;;
50671;SDS011;46021;55.882;37.654;2023-04-24T04:19:07;27.35;;;12.32;;
50671;SDS011;46021;55.882;37.654;2023-04-24T04:21:35;29.25;;;11.90;;
50671;SDS011;46021;55.882;37.654;2023-04-24T04:24:10;25.70;;;11.43;;
50671;SDS011;46021;55.882;37.654;2023-04-24T04:26:42;37.15;;;11.52;;
50671;SDS011;46021;55.882;37.654;2023-04-24T04:29:17;38.45;;;11.55;;
50671;SDS011;46021;55.882;37.654;2023-04-24T04:31:46;29.63;;;11.05;;
50671;SDS011;46021;55.882;37.654;2023-04-24T04:34:14;29.85;;;10.52;;
50671;SDS011;46021;55.882;37.654;2023-04-24T04:36:41;28.13;;;10.93;;
50671;SDS011;46021;55.882;37.654;2023-04-24T04:39:24;23.48;;;9.98;;
50671;SDS011;46021;55.882;37.654;2023-04-24T04:41:56;22.60;;;10.48;;
50671;SDS011;46021;55.882;37.654;2023-04-24T04:44:32;23.00;;;11.20;;
50671;SDS011;46021;55.882;37.654;2023-04-24T04:47:01;26.75;;;10.20;;
50671;SDS011;46021;55.882;37.654;2023-04-24T04:49:32;23.05;;;10.60;;
50671;SDS011;46021;55.882;37.654;2023-04-24T04:52:00;25.27;;;10.52;;
50671;SDS011;46021;55.882;37.654;2023-04-24T04:54:28;26.67;;;10.05;;
50671;SDS011;46021;55.882;37.654;2023-04-24T04:56:56;20.95;;;9.93;;
50671;SDS011;46021;55.882;37.654;2023-04-24T04:59:24;30.92;;;10.00;;
50671;SDS011;46021;55.882;37.654;2023-04-24T05:01:59;29.42;;;9.73;;
50671;SDS011;46021;55.882;37.654;2023-04-24T05:04:26;21.17;;;9.75;;
50671;SDS011;46021;55.882;37.654;2023-04-24T05:11:53;25.33;;;10.60;;
50671;SDS011;46021;55.882;37.654;2023-04-24T05:14:22;21.20;;;9.55;;
50671;SDS011;46021;55.882;37.654;2023-04-24T05:19:20;17.42;;;8.65;;
50671;SDS011;46021;55.882;37.654;2023-04-24T05:21:47;16.77;;;7.88;;
50671;SDS011;46021;55.882;37.654;2023-04-24T05:27:05;14.23;;;7.60;;
50671;SDS011;46021;55.882;37.654;2023-04-24T05:29:39;17.67;;;7.40;;
50671;SDS011;46021;55.882;37.654;2023-04-24T05:32:07;17.05;;;7.80;;
50671;SDS011;46021;55.882;37.654;2023-04-24T05:34:36;18.55;;;7.72;;
50671;SDS011;46021;55.882;37.654;2023-04-24T05:37:03;20.65;;;6.65;;
50671;SDS011;46021;55.882;37.654;2023-04-24T05:39:33;20.17;;;7.38;;
50671;SDS011;46021;55.882;37.654;2023-04-24T05:42:01;16.45;;;6.57;;
50671;SDS011;46021;55.882;37.654;2023-04-24T05:44:29;13.43;;;6.95;;
50671;SDS011;46021;55.882;37.654;2023-04-24T05:46:58;17.45;;;6.20;;
50671;SDS011;46021;55.882;37.654;2023-04-24T05:49:26;18.52;;;5.80;;
50671;SDS011;46021;55.882;37.654;2023-04-24T05:51:55;14.75;;;5.88;;
50671;SDS011;46021;55.882;37.654;2023-04-24T05:54:23;13.05;;;5.95;;
50671;SDS011;46021;55.882;37.654;2023-04-24T05:56:51;10.90;;;6.20;;
50671;SDS011;46021;55.882;37.654;2023-04-24T05:59:29;18.95;;;5.60;;
50671;SDS011;46021;55.882;37.654;2023-04-24T06:01:57;13.38;;;5.80;;
50671;SDS011;46021;55.882;37.654;2023-04-24T06:06:51;11.68;;;5.57;;
50671;SDS011;46021;55.882;37.654;2023-04-24T06:09:23;10.35;;;5.05;;
50671;SDS011;46021;55.882;37.654;2023-04-24T06:11:50;14.90;;;5.40;;
50671;SDS011;46021;55.882;37.654;2023-04-24T06:14:20;11.93;;;5.50;;
50671;SDS011;46021;55.882;37.654;2023-04-24T06:17:05;14.65;;;5.28;;
50671;SDS011;46021;55.882;37.654;2023-04-24T06:19:37;10.68;;;5.68;;
50671;SDS011;46021;55.882;37.654;2023-04-24T06:22:04;13.77;;;5.50;;
50671;SDS011;46021;55.882;37.654;2023-04-24T06:24:33;8.88;;;4.97;;
50671;SDS011;46021;55.882;37.654;2023-04-24T06:27:01;28.08;;;6.88;;
50671;SDS011;46021;55.882;37.654;2023-04-24T06:29:28;10.68;;;5.05;;
50671;SDS011;46021;55.882;37.654;2023-04-24T06:31:55;14.60;;;7.00;;
50671;SDS011;46021;55.882;37.654;2023-04-24T06:34:22;13.85;;;6.07;;
50671;SDS011;46021;55.882;37.654;2023-04-24T06:36:49;10.48;;;5.90;;
50671;SDS011;46021;55.882;37.654;2023-04-24T06:39:17;15.65;;;6.28;;
50671;SDS011;46021;55.882;37.654;2023-04-24T06:41:45;12.48;;;5.90;;
50671;SDS011;46021;55.882;37.654;2023-04-24T06:44:18;13.68;;;6.45;;
50671;SDS011;46021;55.882;37.654;2023-04-24T06:46:46;14.40;;;5.32;;
50671;SDS011;46021;55.882;37.654;2023-04-24T06:49:13;13.85;;;5.28;;
50671;SDS011;46021;55.882;37.654;2023-04-24T06:51:41;13.73;;;5.70;;
50671;SDS011;46021;55.882;37.654;2023-04-24T06:54:08;10.55;;;5.65;;
50671;SDS011;46021;55.882;37.654;2023-04-24T06:56:35;14.07;;;5.15;;
50671;SDS011;46021;55.882;37.654;2023-04-24T06:59:04;13.05;;;5.25;;
50671;SDS011;46021;55.882;37.654;2023-04-24T07:01:31;11.52;;;6.35;;
50671;SDS011;46021;55.882;37.654;2023-04-24T07:03:58;16.55;;;5.15;;
50671;SDS011;46021;55.882;37.654;2023-04-24T07:06:25;14.10;;;4.65;;
50671;SDS011;46021;55.882;37.654;2023-04-24T07:08:52;18.65;;;5.07;;
50671;SDS011;46021;55.882;37.654;2023-04-24T07:11:21;12.63;;;4.93;;
50671;SDS011;46021;55.882;37.654;2023-04-24T07:13:48;15.25;;;5.13;;
50671;SDS011;46021;55.882;37.654;2023-04-24T07:16:17;10.13;;;4.80;;
50671;SDS011;46021;55.882;37.654;2023-04-24T07:18:44;14.00;;;4.85;;
50671;SDS011;46021;55.882;37.654;2023-04-24T07:21:11;11.93;;;5.72;;
50671;SDS011;46021;55.882;37.654;2023-04-24T07:23:38;10.93;;;5.47;;
50671;SDS011;46021;55.882;37.654;2023-04-24T07:26:06;13.93;;;5.15;;
50671;SDS011;46021;55.882;37.654;2023-04-24T07:28:33;12.73;;;4.88;;
50671;SDS011;46021;55.882;37.654;2023-04-24T07:31:01;21.90;;;6.47;;
50671;SDS011;46021;55.882;37.654;2023-04-24T07:33:29;11.85;;;5.35;;
50671;SDS011;46021;55.882;37.654;2023-04-24T07:35:56;7.82;;;4.85;;
50671;SDS011;46021;55.882;37.654;2023-04-24T07:38:23;9.77;;;4.47;;
50671;SDS011;46021;55.882;37.654;2023-04-24T07:40:51;7.57;;;4.30;;
50671;SDS011;46021;55.882;37.654;2023-04-24T07:43:19;12.48;;;4.60;;
50671;SDS011;46021;55.882;37.654;2023-04-24T07:45:46;12.63;;;4.53;;
50671;SDS011;46021;55.882;37.654;2023-04-24T07:48:14;7.22;;;4.22;;
50671;SDS011;46021;55.882;37.654;2023-04-24T07:50:43;17.90;;;5.13;;
50671;SDS011;46021;55.882;37.654;2023-04-24T07:53:10;13.68;;;4.47;;
50671;SDS011;46021;55.882;37.654;2023-04-24T07:55:37;11.05;;;4.15;;
50671;SDS011;46021;55.882;37.654;2023-04-24T07:58:04;8.73;;;5.00;;
50671;SDS011;46021;55.882;37.654;2023-04-24T08:00:32;9.32;;;4.75;;
50671;SDS011;46021;55.882;37.654;2023-04-24T08:05:26;8.02;;;4.50;;
50671;SDS011;46021;55.882;37.654;2023-04-24T08:10:22;10.70;;;6.20;;
50671;SDS011;46021;55.882;37.654;2023-04-24T08:15:16;11.90;;;4.60;;
50671;SDS011;46021;55.882;37.654;2023-04-24T08:17:44;8.75;;;4.53;;
50671;SDS011;46021;55.882;37.654;2023-04-24T08:20:11;20.48;;;4.70;;
50671;SDS011;46021;55.882;37.654;2023-04-24T08:22:39;9.02;;;4.63;;
50671;SDS011;46021;55.882;37.654;2023-04-24T08:25:09;14.65;;;9.43;;
50671;SDS011;46021;55.882;37.654;2023-04-24T08:27:36;11.07;;;5.25;;
50671;SDS011;46021;55.882;37.654;2023-04-24T08:30:04;12.60;;;5.10;;
50671;SDS011;46021;55.882;37.654;2023-04-24T08:32:34;7.72;;;4.78;;
50671;SDS011;46021;55.882;37.654;2023-04-24T08:35:01;8.10;;;4.40;;
50671;SDS011;46021;55.882;37.654;2023-04-24T08:37:30;9.73;;;5.78;;
50671;SDS011;46021;55.882;37.654;2023-04-24T08:39:57;10.02;;;5.05;;
50671;SDS011;46021;55.882;37.654;2023-04-24T08:42:26;8.18;;;4.75;;
50671;SDS011;46021;55.882;37.654;2023-04-24T08:44:57;11.70;;;5.00;;
50671;SDS011;46021;55.882;37.654;2023-04-24T08:47:24;7.50;;;4.57;;
50671;SDS011;46021;55.882;37.654;2023-04-24T08:49:53;16.92;;;5.38;;
50671;SDS011;46021;55.882;37.654;2023-04-24T08:52:22;15.13;;;4.70;;
50671;SDS011;46021;55.882;37.654;2023-04-24T08:54:50;9.75;;;4.90;;
50671;SDS011;46021;55.882;37.654;2023-04-24T08:59:46;11.63;;;4.45;;
50671;SDS011;46021;55.882;37.654;2023-04-24T09:02:13;11.38;;;4.70;;
50671;SDS011;46021;55.882;37.654;2023-04-24T09:04:42;9.82;;;4.68;;
50671;SDS011;46021;55.882;37.654;2023-04-24T09:07:10;5.88;;;3.88;;
50671;SDS011;46021;55.882;37.654;2023-04-24T09:09:40;17.00;;;9.85;;
50671;SDS011;46021;55.882;37.654;2023-04-24T09:12:08;10.27;;;5.13;;
50671;SDS011;46021;55.882;37.654;2023-04-24T09:14:36;12.25;;;5.22;;
50671;SDS011;46021;55.882;37.654;2023-04-24T09:17:09;8.07;;;5.00;;
50671;SDS011;46021;55.882;37.654;2023-04-24T09:19:36;11.57;;;4.63;;
50671;SDS011;46021;55.882;37.654;2023-04-24T09:22:04;8.88;;;4.15;;
50671;SDS011;46021;55.882;37.654;2023-04-24T09:24:32;9.65;;;4.40;;
50671;SDS011;46021;55.882;37.654;2023-04-24T09:27:00;24.15;;;4.30;;
50671;SDS011;46021;55.882;37.654;2023-04-24T09:29:28;9.55;;;4.20;;
50671;SDS011;46021;55.882;37.654;2023-04-24T09:31:55;7.30;;;4.78;;
50671;SDS011;46021;55.882;37.654;2023-04-24T09:34:24;7.90;;;3.85;;
50671;SDS011;46021;55.882;37.654;2023-04-24T09:36:52;10.85;;;4.78;;
50671;SDS011;46021;55.882;37.654;2023-04-24T09:39:20;8.02;;;4.63;;
50671;SDS011;46021;55.882;37.654;2023-04-24T09:44:15;10.05;;;4.35;;
50671;SDS011;46021;55.882;37.654;2023-04-24T09:46:45;10.73;;;4.72;;
50671;SDS011;46021;55.882;37.654;2023-04-24T09:49:15;6.63;;;4.10;;
50671;SDS011;46021;55.882;37.654;2023-04-24T09:51:48;8.63;;;4.47;;
50671;SDS011;46021;55.882;37.654;2023-04-24T09:54:16;12.10;;;4.18;;
50671;SDS011;46021;55.882;37.654;2023-04-24T09:56:45;15.13;;;4.40;;
50671;SDS011;46021;55.882;37.654;2023-04-24T09:59:14;7.57;;;4.38;;
50671;SDS011;46021;55.882;37.654;2023-04-24T10:01:42;7.15;;;4.05;;
50671;SDS011;46021;55.882;37.654;2023-04-24T10:04:16;7.10;;;3.90;;
50671;SDS011;46021;55.882;37.654;2023-04-24T10:06:44;10.23;;;4.70;;
50671;SDS011;46021;55.882;37.654;2023-04-24T10:09:14;9.23;;;4.07;;
50671;SDS011;46021;55.882;37.654;2023-04-24T10:11:42;11.27;;;4.30;;
50671;SDS011;46021;55.882;37.654;2023-04-24T10:14:12;6.85;;;4.15;;
50671;SDS011;46021;55.882;37.654;2023-04-24T10:16:40;8.40;;;4.35;;
50671;SDS011;46021;55.882;37.654;2023-04-24T10:19:07;7.68;;;3.90;;
50671;SDS011;46021;55.882;37.654;2023-04-24T10:21:35;6.57;;;4.00;;
50671;SDS011;46021;55.882;37.654;2023-04-24T10:24:04;6.22;;;3.90;;
50671;SDS011;46021;55.882;37.654;2023-04-24T10:26:34;9.80;;;4.10;;
50671;SDS011;46021;55.882;37.654;2023-04-24T10:29:02;6.57;;;3.80;;
50671;SDS011;46021;55.882;37.654;2023-04-24T10:31:36;8.30;;;4.15;;
50671;SDS011;46021;55.882;37.654;2023-04-24T10:34:03;6.78;;;4.28;;
50671;SDS011;46021;55.882;37.654;2023-04-24T10:36:31;12.18;;;3.60;;
50671;SDS011;46021;55.882;37.654;2023-04-24T10:39:01;6.22;;;3.92;;
50671;SDS011;46021;55.882;37.654;2023-04-24T10:41:30;11.23;;;3.47;;
50671;SDS011;46021;55.882;37.654;2023-04-24T10:44:05;9.90;;;4.00;;
50671;SDS011;46021;55.882;37.654;2023-04-24T10:46:34;9.63;;;3.90;;
50671;SDS011;46021;55.882;37.654;2023-04-24T10:49:03;7.00;;;4.00;;
50671;SDS011;46021;55.882;37.654;2023-04-24T10:51:47;6.18;;;4.10;;
50671;SDS011;46021;55.882;37.654;2023-04-24T10:54:22;9.93;;;3.92;;
50671;SDS011;46021;55.882;37.654;2023-04-24T10:56:50;9.45;;;3.85;;
50671;SDS011;46021;55.882;37.654;2023-04-24T10:59:26;7.43;;;3.83;;
50671;SDS011;46021;55.882;37.654;2023-04-24T11:01:54;9.48;;;3.80;;
50671;SDS011;46021;55.882;37.654;2023-04-24T11:04:31;9.57;;;3.53;;
50671;SDS011;46021;55.882;37.654;2023-04-24T11:07:01;8.73;;;3.70;;
50671;SDS011;46021;55.882;37.654;2023-04-24T11:09:30;9.40;;;3.42;;
50671;SDS011;46021;55.882;37.654;2023-04-24T11:12:05;8.55;;;3.50;;
50671;SDS011;46021;55.882;37.654;2023-04-24T11:17:33;8.13;;;3.90;;
50671;SDS011;46021;55.882;37.654;2023-04-24T11:20:03;6.93;;;3.63;;
50671;SDS011;46021;55.882;37.654;2023-04-24T11:22:33;4.53;;;3.10;;
50671;SDS011;46021;55.882;37.654;2023-04-24T11:25:01;8.50;;;3.33;;
50671;SDS011;46021;55.882;37.654;2023-04-24T11:27:32;7.47;;;3.95;;
50671;SDS011;46021;55.882;37.654;2023-04-24T11:30:08;5.97;;;3.53;;
50671;SDS011;46021;55.882;37.654;2023-04-24T11:32:37;7.30;;;3.70;;
50671;SDS011;46021;55.882;37.654;2023-04-24T11:35:06;7.95;;;3.90;;
50671;SDS011;46021;55.882;37.654;2023-04-24T11:37:35;6.22;;;4.18;;
50671;SDS011;46021;55.882;37.654;2023-04-24T11:40:04;6.75;;;3.50;;
50671;SDS011;46021;55.882;37.654;2023-04-24T11:42:33;13.73;;;3.67;;
50671;SDS011;46021;55.882;37.654;2023-04-24T11:45:01;8.45;;;3.45;;
50671;SDS011;46021;55.882;37.654;2023-04-24T11:47:32;8.60;;;3.85;;
50671;SDS011;46021;55.882;37.654;2023-04-24T11:50:00;13.50;;;3.88;;
50671;SDS011;46021;55.882;37.654;2023-04-24T11:52:30;9.40;;;3.80;;
50671;SDS011;46021;55.882;37.654;2023-04-24T11:54:57;17.90;;;3.70;;
50671;SDS011;46021;55.882;37.654;2023-04-24T11:57:25;8.05;;;3.75;;
50671;SDS011;46021;55.882;37.654;2023-04-24T11:59:54;7.95;;;3.38;;
50671;SDS011;46021;55.882;37.654;2023-04-24T12:02:22;11.15;;;4.22;;
50671;SDS011;46021;55.882;37.654;2023-04-24T12:04:51;24.92;;;17.33;;
50671;SDS011;46021;55.882;37.654;2023-04-24T12:07:18;6.70;;;4.25;;
50671;SDS011;46021;55.882;37.654;2023-04-24T12:09:46;10.98;;;4.10;;
50671;SDS011;46021;55.882;37.654;2023-04-24T12:12:15;5.97;;;3.75;;
50671;SDS011;46021;55.882;37.654;2023-04-24T12:14:44;8.48;;;3.28;;
50671;SDS011;46021;55.882;37.654;2023-04-24T12:17:14;5.63;;;3.88;;
50671;SDS011;46021;55.882;37.654;2023-04-24T12:19:44;9.20;;;3.97;;
50671;SDS011;46021;55.882;37.654;2023-04-24T12:22:14;11.38;;;3.75;;
50671;SDS011;46021;55.882;37.654;2023-04-24T12:24:57;8.48;;;3.33;;
50671;SDS011;46021;55.882;37.654;2023-04-24T12:27:26;7.90;;;4.07;;
50671;SDS011;46021;55.882;37.654;2023-04-24T12:29:55;24.55;;;10.07;;
50671;SDS011;46021;55.882;37.654;2023-04-24T12:32:23;9.13;;;4.13;;
50671;SDS011;46021;55.882;37.654;2023-04-24T12:34:51;6.90;;;3.85;;
50671;SDS011;46021;55.882;37.654;2023-04-24T12:37:21;8.95;;;4.07;;
50671;SDS011;46021;55.882;37.654;2023-04-24T12:39:59;7.80;;;3.97;;
50671;SDS011;46021;55.882;37.654;2023-04-24T12:42:31;7.55;;;3.78;;
50671;SDS011;46021;55.882;37.654;2023-04-24T12:47:26;7.45;;;3.70;;
50671;SDS011;46021;55.882;37.654;2023-04-24T12:49:53;7.38;;;4.03;;
50671;SDS011;46021;55.882;37.654;2023-04-24T12:52:22;11.32;;;3.70;;
50671;SDS011;46021;55.882;37.654;2023-04-24T12:54:52;12.80;;;4.20;;
50671;SDS011;46021;55.882;37.654;2023-04-24T12:57:20;10.48;;;4.20;;
50671;SDS011;46021;55.882;37.654;2023-04-24T12:59:48;9.13;;;4.03;;
50671;SDS011;46021;55.882;37.654;2023-04-24T13:02:16;6.43;;;3.40;;
50671;SDS011;46021;55.882;37.654;2023-04-24T13:04:44;7.15;;;3.42;;
50671;SDS011;46021;55.882;37.654;2023-04-24T13:07:12;7.13;;;3.78;;
50671;SDS011;46021;55.882;37.654;2023-04-24T13:09:42;7.82;;;4.03;;
50671;SDS011;46021;55.882;37.654;2023-04-24T13:12:10;19.17;;;4.10;;
50671;SDS011;46021;55.882;37.654;2023-04-24T13:14:38;12.43;;;3.90;;
50671;SDS011;46021;55.882;37.654;2023-04-24T13:17:05;9.00;;;3.85;;
50671;SDS011;46021;55.882;37.654;2023-04-24T13:19:35;8.68;;;3.67;;
50671;SDS011;46021;55.882;37.654;2023-04-24T13:22:03;7.88;;;3.50;;
50671;SDS011;46021;55.882;37.654;2023-04-24T13:24:30;10.80;;;3.90;;
50671;SDS011;46021;55.882;37.654;2023-04-24T13:29:27;8.57;;;4.00;;
50671;SDS011;46021;55.882;37.654;2023-04-24T13:34:22;9.02;;;4.00;;
50671;SDS011;46021;55.882;37.654;2023-04-24T13:36:49;6.18;;;3.50;;
50671;SDS011;46021;55.882;37.654;2023-04-24T13:39:17;12.65;;;3.88;;
50671;SDS011;46021;55.882;37.654;2023-04-24T13:41:45;10.80;;;4.25;;
50671;SDS011;46021;55.882;37.654;2023-04-24T13:44:15;7.85;;;4.10;;
50671;SDS011;46021;55.882;37.654;2023-04-24T13:46:43;11.05;;;3.75;;
50671;SDS011;46021;55.882;37.654;2023-04-24T13:49:11;7.78;;;4.93;;
50671;SDS011;46021;55.882;37.654;2023-04-24T13:51:39;8.13;;;3.65;;
50671;SDS011;46021;55.882;37.654;2023-04-24T13:54:07;5.75;;;3.25;;
50671;SDS011;46021;55.882;37.654;2023-04-24T13:56:34;10.93;;;4.10;;
50671;SDS011;46021;55.882;37.654;2023-04-24T13:59:02;10.57;;;3.80;;
50671;SDS011;46021;55.882;37.654;2023-04-24T14:01:30;12.10;;;3.75;;
50671;SDS011;46021;55.882;37.654;2023-04-24T14:03:57;19.23;;;4.38;;
50671;SDS011;46021;55.882;37.654;2023-04-24T14:06:25;7.93;;;3.75;;
50671;SDS011;46021;55.882;37.654;2023-04-24T14:08:52;5.75;;;3.22;;
50671;SDS011;46021;55.882;37.654;2023-04-24T14:11:19;9.93;;;3.45;;
50671;SDS011;46021;55.882;37.654;2023-04-24T14:13:47;7.28;;;3.58;;
50671;SDS011;46021;55.882;37.654;2023-04-24T14:16:14;6.28;;;3.60;;
50671;SDS011;46021;55.882;37.654;2023-04-24T14:18:43;9.20;;;3.20;;
50671;SDS011;46021;55.882;37.654;2023-04-24T14:21:10;33.35;;;14.80;;
50671;SDS011;46021;55.882;37.654;2023-04-24T14:23:37;8.43;;;4.63;;
50671;SDS011;46021;55.882;37.654;2023-04-24T14:26:05;8.23;;;3.65;;
50671;SDS011;46021;55.882;37.654;2023-04-24T14:28:32;11.45;;;3.65;;
50671;SDS011;46021;55.882;37.654;2023-04-24T14:30:59;7.13;;;3.13;;
50671;SDS011;46021;55.882;37.654;2023-04-24T14:33:26;7.18;;;3.58;;
50671;SDS011;46021;55.882;37.654;2023-04-24T14:35:55;8.38;;;3.75;;
50671;SDS011;46021;55.882;37.654;2023-04-24T14:38:22;6.68;;;3.20;;
50671;SDS011;46021;55.882;37.654;2023-04-24T14:40:50;16.75;;;3.20;;
50671;SDS011;46021;55.882;37.654;2023-04-24T14:43:17;6.80;;;3.65;;
50671;SDS011;46021;55.882;37.654;2023-04-24T14:45:44;11.82;;;3.45;;
50671;SDS011;46021;55.882;37.654;2023-04-24T14:48:11;9.30;;;3.83;;
50671;SDS011;46021;55.882;37.654;2023-04-24T14:50:38;10.65;;;3.55;;
50671;SDS011;46021;55.882;37.654;2023-04-24T14:53:07;8.07;;;3.45;;
50671;SDS011;46021;55.882;37.654;2023-04-24T14:55:34;8.15;;;3.53;;
50671;SDS011;46021;55.882;37.654;2023-04-24T14:58:02;6.95;;;3.58;;
50671;SDS011;46021;55.882;37.654;2023-04-24T15:00:29;9.82;;;3.50;;
50671;SDS011;46021;55.882;37.654;2023-04-24T15:02:56;8.57;;;3.67;;
50671;SDS011;46021;55.882;37.654;2023-04-24T15:05:23;11.88;;;3.58;;
50671;SDS011;46021;55.882;37.654;2023-04-24T15:07:50;6.43;;;3.00;;
50671;SDS011;46021;55.882;37.654;2023-04-24T15:10:19;6.43;;;3.60;;
50671;SDS011;46021;55.882;37.654;2023-04-24T15:12:48;9.32;;;3.95;;
50671;SDS011;46021;55.882;37.654;2023-04-24T15:15:15;15.45;;;3.42;;